Time;durP1;ratioP1;P1;durP2;ratioP2;P2;SDS_P1;SDS_P2;PMS_P1;PMS_P2;Temp;Humidity;BMP_temperature;BMP_pressure;BME280_temperature;BME280_humidity;BME280_pressure;Samples;Min_cycle;Max_cycle;Signal;HPM_P1;HPM_P2
2023/07/17 00:00:17;;;;;;;9.65;6.32;;;20.80;99.90;;;;;;5090801;28;20031;-60
2023/07/17 00:02:43;;;;;;;10.85;6.80;;;21.00;99.90;;;;;;5091624;28;20453;-61
2023/07/17 00:05:10;;;;;;;15.52;7.60;;;21.10;99.90;;;;;;5091220;28;20538;-60
2023/07/17 00:07:37;;;;;;;11.50;7.00;;;21.10;99.90;;;;;;5091074;28;20024;-60
2023/07/17 00:10:06;;;;;;;14.73;7.13;;;21.00;99.90;;;;;;5090830;28;20074;-60
2023/07/17 00:12:32;;;;;;;12.77;7.57;;;21.10;99.90;;;;;;5091290;28;20035;-60
2023/07/17 00:14:58;;;;;;;11.80;7.10;;;21.00;99.90;;;;;;5091149;28;20021;-60
2023/07/17 00:17:23;;;;;;;12.68;7.63;;;21.00;99.90;;;;;;5090939;28;20103;-61
2023/07/17 00:19:54;;;;;;;13.02;7.07;;;21.00;99.90;;;;;;5090930;28;20016;-60
2023/07/17 00:22:21;;;;;;;14.18;7.97;;;21.00;99.90;;;;;;5091006;28;20032;-60
2023/07/17 00:24:46;;;;;;;12.98;6.95;;;21.10;99.90;;;;;;5090903;28;20044;-61
2023/07/17 00:27:12;;;;;;;13.30;7.30;;;20.90;99.90;;;;;;5089708;28;20186;-60
2023/07/17 00:29:40;;;;;;;12.55;7.75;;;20.60;99.90;;;;;;5090927;28;20039;-61
2023/07/17 00:32:06;;;;;;;10.65;7.18;;;20.50;99.90;;;;;;5090674;28;20029;-60
2023/07/17 00:34:32;;;;;;;11.70;6.82;;;20.40;99.90;;;;;;5091372;28;20565;-60
2023/07/17 00:36:58;;;;;;;14.25;7.95;;;20.30;99.90;;;;;;5090712;28;20040;-60
2023/07/17 00:39:24;;;;;;;12.55;7.55;;;20.30;99.90;;;;;;5090444;28;20100;-60
2023/07/17 00:41:51;;;;;;;15.07;7.72;;;20.20;99.90;;;;;;5090920;28;20103;-60
2023/07/17 00:44:17;;;;;;;14.32;7.80;;;20.20;99.90;;;;;;5090890;28;20505;-61
2023/07/17 00:46:44;;;;;;;12.20;6.93;;;20.20;99.90;;;;;;5091170;28;20052;-60
2023/07/17 00:49:10;;;;;;;12.18;7.60;;;20.20;99.90;;;;;;5089466;28;20398;-60
2023/07/17 00:51:41;;;;;;;13.55;7.85;;;20.10;99.90;;;;;;5090612;28;20470;-60
2023/07/17 00:54:10;;;;;;;10.93;7.30;;;20.10;99.90;;;;;;5090596;28;20038;-60
2023/07/17 00:56:36;;;;;;;12.95;7.60;;;20.10;99.90;;;;;;5090594;28;20440;-61
2023/07/17 00:59:03;;;;;;;12.40;7.72;;;20.10;99.90;;;;;;5090683;28;20025;-61
2023/07/17 01:01:29;;;;;;;11.93;7.30;;;20.00;99.90;;;;;;5090971;28;20061;-60
2023/07/17 01:03:57;;;;;;;14.63;7.88;;;19.90;99.90;;;;;;5093348;28;20016;-60
2023/07/17 01:06:26;;;;;;;12.45;8.13;;;19.90;99.90;;;;;;5094420;28;20035;-61
2023/07/17 01:08:52;;;;;;;15.35;8.52;;;19.90;99.90;;;;;;5093918;28;20016;-60
2023/07/17 01:11:18;;;;;;;12.30;8.60;;;19.90;99.90;;;;;;5094643;28;20028;-60
2023/07/17 01:13:44;;;;;;;14.73;8.35;;;20.00;99.90;;;;;;5094343;28;20031;-60
2023/07/17 01:16:10;;;;;;;14.07;8.35;;;20.20;99.90;;;;;;5094183;28;20032;-60
2023/07/17 01:18:36;;;;;;;15.88;8.50;;;20.20;99.90;;;;;;5093810;28;20032;-61
2023/07/17 01:21:05;;;;;;;14.75;8.70;;;20.30;99.90;;;;;;5094254;28;20027;-60
2023/07/17 01:23:31;;;;;;;13.85;7.97;;;20.40;99.90;;;;;;5093661;28;20098;-60
2023/07/17 01:25:57;;;;;;;12.52;8.18;;;20.40;99.90;;;;;;5094129;28;20080;-60
2023/07/17 01:28:23;;;;;;;13.35;8.13;;;20.40;99.90;;;;;;5093925;28;20028;-61
2023/07/17 01:30:49;;;;;;;13.07;8.25;;;20.40;99.90;;;;;;5094212;28;20020;-60
2023/07/17 01:33:14;;;;;;;14.13;7.85;;;20.40;99.90;;;;;;5093768;28;20133;-60
2023/07/17 01:35:40;;;;;;;12.73;7.95;;;20.40;99.90;;;;;;5093693;28;20032;-60
2023/07/17 01:38:07;;;;;;;11.48;8.48;;;20.30;99.90;;;;;;5093191;28;20051;-60
2023/07/17 01:40:33;;;;;;;12.73;8.05;;;20.30;99.90;;;;;;5093655;28;20016;-60
2023/07/17 01:42:59;;;;;;;11.82;8.32;;;20.30;99.90;;;;;;5093859;28;20035;-60
2023/07/17 01:45:24;;;;;;;13.55;8.80;;;20.10;99.90;;;;;;5093905;28;20016;-60
2023/07/17 01:47:50;;;;;;;14.20;8.57;;;20.00;99.90;;;;;;5093625;28;20065;-60
2023/07/17 01:50:16;;;;;;;15.60;8.35;;;19.90;99.90;;;;;;5093372;28;20028;-60
2023/07/17 01:52:41;;;;;;;14.73;8.20;;;19.80;99.90;;;;;;5092992;28;20044;-61
2023/07/17 01:55:07;;;;;;;12.93;8.43;;;19.80;99.90;;;;;;5093421;28;20040;-61
2023/07/17 01:57:33;;;;;;;14.15;8.50;;;19.70;99.90;;;;;;5093317;28;20127;-61
2023/07/17 01:59:59;;;;;;;11.40;8.13;;;19.70;99.90;;;;;;5093534;28;20475;-61
2023/07/17 02:02:25;;;;;;;14.25;9.13;;;19.70;99.90;;;;;;5093298;28;20103;-60
2023/07/17 02:04:51;;;;;;;14.55;8.80;;;19.60;99.90;;;;;;5093109;28;20107;-60
2023/07/17 02:07:17;;;;;;;12.10;8.25;;;19.60;99.90;;;;;;5093176;28;20111;-61
2023/07/17 02:09:42;;;;;;;10.88;8.02;;;19.60;99.90;;;;;;5093193;28;20116;-60
2023/07/17 02:12:08;;;;;;;12.85;8.68;;;19.60;99.90;;;;;;5093059;28;20032;-61
2023/07/17 02:14:34;;;;;;;15.07;8.25;;;19.60;99.90;;;;;;5091964;28;20024;-61
2023/07/17 02:17:00;;;;;;;11.90;8.55;;;19.50;99.90;;;;;;5093072;28;20075;-60
2023/07/17 02:19:27;;;;;;;13.43;9.00;;;19.50;99.90;;;;;;5092685;28;20487;-61
2023/07/17 02:21:53;;;;;;;13.50;8.80;;;19.50;99.90;;;;;;5092603;28;20080;-60
2023/07/17 02:24:19;;;;;;;12.20;8.82;;;19.50;99.90;;;;;;5092732;28;20123;-60
2023/07/17 02:26:44;;;;;;;15.82;8.70;;;19.50;99.90;;;;;;5092874;28;20032;-60
2023/07/17 02:29:10;;;;;;;11.50;8.43;;;19.70;99.90;;;;;;5092692;28;20429;-60
2023/07/17 02:31:36;;;;;;;12.85;8.50;;;19.80;99.90;;;;;;5092836;28;20032;-60
2023/07/17 02:34:01;;;;;;;14.05;7.95;;;19.90;99.90;;;;;;5092991;28;20078;-60
2023/07/17 02:36:28;;;;;;;15.05;9.02;;;20.00;99.90;;;;;;5092118;28;20028;-61
2023/07/17 02:38:54;;;;;;;10.73;7.97;;;20.00;99.90;;;;;;5091290;28;20065;-60
2023/07/17 02:41:19;;;;;;;12.10;8.40;;;20.10;99.90;;;;;;5092377;28;20137;-60
2023/07/17 02:43:45;;;;;;;12.13;8.25;;;20.00;99.90;;;;;;5092422;28;20051;-60
2023/07/17 02:46:11;;;;;;;13.05;8.02;;;20.10;99.90;;;;;;5092768;28;20028;-60
2023/07/17 02:48:36;;;;;;;11.57;8.05;;;20.10;99.90;;;;;;5092242;28;20020;-60
2023/07/17 02:51:03;;;;;;;12.68;8.10;;;20.10;99.90;;;;;;5092345;28;20440;-60
2023/07/17 02:53:29;;;;;;;12.80;8.05;;;20.10;99.90;;;;;;5092378;28;20024;-60
2023/07/17 02:55:54;;;;;;;12.52;7.75;;;20.10;99.90;;;;;;5092259;28;20078;-60
2023/07/17 02:58:20;;;;;;;13.63;8.18;;;20.00;99.90;;;;;;5092205;28;20038;-60
2023/07/17 03:00:46;;;;;;;12.88;8.25;;;19.90;99.90;;;;;;5092043;28;20036;-60
2023/07/17 03:03:12;;;;;;;13.85;8.10;;;19.80;99.90;;;;;;5092095;28;20035;-60
2023/07/17 03:05:37;;;;;;;13.68;8.40;;;19.70;99.90;;;;;;5092041;28;20038;-60
2023/07/17 03:08:03;;;;;;;14.13;7.80;;;19.60;99.90;;;;;;5092050;28;20072;-60
2023/07/17 03:10:30;;;;;;;12.70;8.23;;;19.50;99.90;;;;;;5092103;28;20032;-60
2023/07/17 03:12:55;;;;;;;13.35;8.23;;;19.50;99.90;;;;;;5091939;28;20020;-60
2023/07/17 03:15:21;;;;;;;15.48;8.93;;;19.40;99.90;;;;;;5092263;28;20486;-60
2023/07/17 03:17:47;;;;;;;13.93;8.38;;;19.40;99.90;;;;;;5091595;28;20060;-60
2023/07/17 03:20:13;;;;;;;12.70;8.15;;;19.40;99.90;;;;;;5091211;28;20039;-60
2023/07/17 03:22:39;;;;;;;13.75;8.70;;;19.40;99.90;;;;;;5091603;28;20031;-60
2023/07/17 03:25:05;;;;;;;14.68;8.73;;;19.40;99.90;;;;;;5091630;28;20097;-60
2023/07/17 03:27:32;;;;;;;11.40;8.57;;;19.30;99.90;;;;;;5091984;28;20099;-60
2023/07/17 03:29:57;;;;;;;14.65;8.60;;;19.30;99.90;;;;;;5091620;28;20052;-60
2023/07/17 03:32:23;;;;;;;13.48;8.25;;;19.30;99.90;;;;;;5091795;28;20474;-60
2023/07/17 03:34:49;;;;;;;14.23;8.45;;;19.30;99.90;;;;;;5091142;28;20031;-60
2023/07/17 03:37:15;;;;;;;15.60;9.07;;;19.30;99.90;;;;;;5091888;28;20115;-60
2023/07/17 03:39:40;;;;;;;15.35;8.20;;;19.20;99.90;;;;;;5091391;28;20028;-60
2023/07/17 03:42:10;;;;;;;13.32;8.65;;;19.20;99.90;;;;;;5091469;28;20051;-60
2023/07/17 03:44:39;;;;;;;15.38;8.95;;;19.30;99.90;;;;;;5091435;28;20036;-60
2023/07/17 03:47:05;;;;;;;11.05;7.60;;;19.50;99.90;;;;;;5091857;28;20028;-60
2023/07/17 03:49:31;;;;;;;14.00;8.18;;;19.50;99.90;;;;;;5091039;28;20023;-60
2023/07/17 03:51:58;;;;;;;13.15;8.07;;;19.70;99.90;;;;;;5091321;28;20028;-61
2023/07/17 03:54:24;;;;;;;13.40;8.18;;;19.70;99.90;;;;;;5091356;28;20082;-60
2023/07/17 03:56:50;;;;;;;13.85;8.18;;;19.70;99.90;;;;;;5091565;28;20071;-60
2023/07/17 03:59:15;;;;;;;13.57;8.05;;;19.80;99.90;;;;;;5091241;28;20063;-60
2023/07/17 04:01:41;;;;;;;12.90;7.68;;;19.80;99.90;;;;;;5091267;28;20029;-60
2023/07/17 04:04:07;;;;;;;10.55;7.57;;;19.80;99.90;;;;;;5090921;28;20031;-61
2023/07/17 04:06:33;;;;;;;13.27;7.28;;;19.90;99.90;;;;;;5091470;28;20024;-60
2023/07/17 04:08:58;;;;;;;14.77;7.80;;;19.90;99.90;;;;;;5091169;28;20050;-60
2023/07/17 04:11:24;;;;;;;10.07;7.50;;;19.80;99.90;;;;;;5091450;28;20024;-61
2023/07/17 04:13:52;;;;;;;12.38;7.43;;;19.80;99.90;;;;;;5091150;28;20095;-60
2023/07/17 04:16:20;;;;;;;13.63;7.53;;;19.70;99.90;;;;;;5090897;28;20170;-60
2023/07/17 04:18:46;;;;;;;13.15;7.13;;;19.60;99.90;;;;;;5090747;28;20065;-61
2023/07/17 04:21:11;;;;;;;12.43;7.35;;;19.50;99.90;;;;;;5091113;28;20107;-60
2023/07/17 04:23:37;;;;;;;12.27;6.93;;;19.40;99.90;;;;;;5090927;28;20185;-60
2023/07/17 04:26:03;;;;;;;12.35;7.13;;;19.30;99.90;;;;;;5091492;28;20078;-61
2023/07/17 04:28:29;;;;;;;12.60;7.15;;;19.30;99.90;;;;;;5090983;28;20542;-61
2023/07/17 04:30:54;;;;;;;13.40;6.95;;;19.20;99.90;;;;;;5090591;28;20024;-60
2023/07/17 04:33:20;;;;;;;12.73;7.47;;;19.20;99.90;;;;;;5090989;28;20032;-60
2023/07/17 04:35:46;;;;;;;12.75;7.60;;;19.10;99.90;;;;;;5089647;28;20020;-60
2023/07/17 04:38:11;;;;;;;12.13;7.90;;;19.20;99.90;;;;;;5092528;28;20429;-60
2023/07/17 04:40:37;;;;;;;9.77;6.90;;;19.10;99.90;;;;;;5095207;28;20074;-60
2023/07/17 04:43:03;;;;;;;11.57;7.78;;;19.10;99.90;;;;;;5094583;28;20052;-60
2023/07/17 04:45:29;;;;;;;13.43;7.80;;;19.00;99.90;;;;;;5094468;28;20105;-61
2023/07/17 04:47:55;;;;;;;13.32;7.78;;;19.00;99.90;;;;;;5094723;28;20048;-60
2023/07/17 04:50:26;;;;;;;12.48;7.18;;;19.10;99.90;;;;;;5095011;28;20040;-60
2023/07/17 04:52:52;;;;;;;11.43;7.35;;;19.00;99.90;;;;;;5094748;28;20070;-60
2023/07/17 04:55:18;;;;;;;11.98;7.68;;;19.00;99.90;;;;;;5094606;28;20024;-61
2023/07/17 04:57:43;;;;;;;12.00;7.70;;;19.00;99.90;;;;;;5094299;28;20039;-60
2023/07/17 05:00:11;;;;;;;16.90;7.57;;;19.10;99.90;;;;;;5094532;28;20020;-59
2023/07/17 05:02:36;;;;;;;10.88;7.43;;;19.30;99.90;;;;;;5094370;28;20498;-60
2023/07/17 05:05:02;;;;;;;13.82;7.78;;;19.40;99.90;;;;;;5094452;28;20027;-60
2023/07/17 05:07:28;;;;;;;11.65;7.47;;;19.50;99.90;;;;;;5094727;28;20024;-60
2023/07/17 05:09:53;;;;;;;12.05;7.78;;;19.60;99.90;;;;;;5094306;28;20035;-60
2023/07/17 05:12:19;;;;;;;11.00;7.28;;;19.60;99.90;;;;;;5094301;28;20052;-61
2023/07/17 05:14:45;;;;;;;11.98;7.53;;;19.60;99.90;;;;;;5093029;28;20055;-61
2023/07/17 05:17:11;;;;;;;13.10;7.72;;;19.60;99.90;;;;;;5094053;28;20063;-60
2023/07/17 05:19:36;;;;;;;13.98;7.85;;;19.60;99.90;;;;;;5093820;28;20036;-60
2023/07/17 05:22:02;;;;;;;11.85;7.55;;;19.70;99.90;;;;;;5094049;28;20016;-60
2023/07/17 05:24:28;;;;;;;10.15;7.03;;;19.80;99.90;;;;;;5094117;28;20552;-60
2023/07/17 05:26:53;;;;;;;13.95;7.68;;;19.80;99.90;;;;;;5092892;28;20024;-60
2023/07/17 05:29:19;;;;;;;9.95;7.30;;;19.80;99.90;;;;;;5093571;28;20103;-60
2023/07/17 05:31:44;;;;;;;14.73;7.55;;;19.70;99.90;;;;;;5093979;28;20295;-60
2023/07/17 05:34:10;;;;;;;12.00;8.07;;;19.60;99.90;;;;;;5093938;28;20024;-60
2023/07/17 05:36:36;;;;;;;12.35;7.93;;;19.50;99.90;;;;;;5094096;28;20028;-60
2023/07/17 05:39:02;;;;;;;11.27;7.35;;;19.40;99.90;;;;;;5093463;28;20449;-61
2023/07/17 05:41:27;;;;;;;14.23;7.90;;;19.30;99.90;;;;;;5093480;28;20110;-60
2023/07/17 05:43:53;;;;;;;12.13;7.90;;;19.30;99.90;;;;;;5093233;28;20081;-60
2023/07/17 05:46:19;;;;;;;14.55;8.60;;;19.30;99.90;;;;;;5093615;28;20028;-60
2023/07/17 05:48:45;;;;;;;12.57;7.72;;;19.30;99.90;;;;;;5093280;28;20062;-60
2023/07/17 05:51:10;;;;;;;13.50;8.07;;;19.30;99.90;;;;;;5093611;28;20027;-60
2023/07/17 05:53:36;;;;;;;11.40;8.07;;;19.30;99.90;;;;;;5093631;28;20077;-61
2023/07/17 05:56:02;;;;;;;16.10;7.85;;;19.30;99.90;;;;;;5093462;28;20024;-61
2023/07/17 05:58:28;;;;;;;17.20;8.07;;;19.30;99.90;;;;;;5093002;28;20043;-60
2023/07/17 06:00:54;;;;;;;16.55;8.10;;;19.30;99.90;;;;;;5093275;28;20421;-60
2023/07/17 06:03:20;;;;;;;14.35;8.48;;;19.30;99.90;;;;;;5093253;28;20035;-61
2023/07/17 06:05:45;;;;;;;12.98;7.85;;;19.30;99.90;;;;;;5093564;28;20020;-60
2023/07/17 06:08:11;;;;;;;12.88;7.75;;;19.40;99.90;;;;;;5093244;28;20394;-60
2023/07/17 06:10:37;;;;;;;13.48;8.50;;;19.30;99.90;;;;;;5093495;28;20020;-60
2023/07/17 06:13:03;;;;;;;15.85;8.05;;;19.30;99.90;;;;;;5092841;28;20470;-60
2023/07/17 06:15:29;;;;;;;10.48;7.18;;;19.40;99.90;;;;;;5093024;28;20055;-60
2023/07/17 06:17:55;;;;;;;12.63;8.02;;;19.60;99.90;;;;;;5092612;28;20042;-60
2023/07/17 06:20:20;;;;;;;12.27;7.93;;;19.70;99.90;;;;;;5092969;28;20031;-61
2023/07/17 06:22:47;;;;;;;11.68;7.55;;;19.90;99.90;;;;;;5093058;28;20085;-60
2023/07/17 06:25:13;;;;;;;12.93;7.57;;;20.00;99.90;;;;;;5092769;28;20028;-59
2023/07/17 06:27:39;;;;;;;12.35;6.97;;;20.10;99.90;;;;;;5092514;28;20032;-60
2023/07/17 06:30:05;;;;;;;12.40;7.45;;;20.10;99.90;;;;;;5092655;28;20032;-61
2023/07/17 06:32:31;;;;;;;11.48;7.20;;;20.20;99.90;;;;;;5093308;28;20090;-60
2023/07/17 06:34:57;;;;;;;15.25;7.18;;;20.10;99.90;;;;;;5092602;28;20032;-60
2023/07/17 06:37:22;;;;;;;13.23;7.05;;;20.20;99.90;;;;;;5092456;28;20039;-60
2023/07/17 06:39:48;;;;;;;14.30;7.15;;;20.20;99.90;;;;;;5092470;28;20027;-60
2023/07/17 06:42:14;;;;;;;13.70;6.95;;;20.30;99.90;;;;;;5092525;28;20442;-60
2023/07/17 06:44:39;;;;;;;11.02;7.30;;;20.30;99.90;;;;;;5091963;28;20031;-61
2023/07/17 06:47:05;;;;;;;13.52;7.45;;;20.20;99.90;;;;;;5092477;28;20039;-60
2023/07/17 06:49:31;;;;;;;11.98;6.97;;;20.10;99.90;;;;;;5092682;28;20019;-60
2023/07/17 06:51:57;;;;;;;15.25;7.25;;;20.10;99.90;;;;;;5092447;28;20099;-60
2023/07/17 06:54:22;;;;;;;12.18;6.80;;;20.00;99.90;;;;;;5092388;28;20028;-60
2023/07/17 06:56:48;;;;;;;14.82;7.10;;;19.90;99.90;;;;;;5091770;28;20031;-60
2023/07/17 06:59:13;;;;;;;14.45;6.78;;;19.80;99.90;;;;;;5092297;28;20101;-61
2023/07/17 07:01:39;;;;;;;18.25;7.10;;;19.80;99.90;;;;;;5091539;28;20082;-60
2023/07/17 07:04:05;;;;;;;15.73;7.32;;;19.80;99.90;;;;;;5092395;28;20035;-60
2023/07/17 07:06:31;;;;;;;16.30;7.28;;;19.70;99.90;;;;;;5092326;28;20039;-60
2023/07/17 07:08:57;;;;;;;12.75;6.82;;;19.70;99.90;;;;;;5091797;28;20150;-61
2023/07/17 07:11:22;;;;;;;14.88;7.13;;;19.70;99.90;;;;;;5091713;28;20546;-60
2023/07/17 07:13:48;;;;;;;14.75;7.50;;;19.70;99.90;;;;;;5091945;28;20020;-60
2023/07/17 07:16:14;;;;;;;19.75;7.20;;;19.70;99.90;;;;;;5091744;28;20032;-59
2023/07/17 07:18:39;;;;;;;15.40;7.40;;;19.70;99.90;;;;;;5092079;28;20035;-60
2023/07/17 07:21:06;;;;;;;11.57;6.80;;;19.70;99.90;;;;;;5091992;28;20062;-60
2023/07/17 07:23:32;;;;;;;12.77;7.20;;;19.80;99.90;;;;;;5091495;28;20580;-60
2023/07/17 07:25:57;;;;;;;13.40;6.63;;;19.80;99.90;;;;;;5091430;28;20087;-61
2023/07/17 07:28:23;;;;;;;11.48;6.78;;;19.80;99.90;;;;;;5092079;28;20032;-60
2023/07/17 07:30:57;;;;;;;12.50;6.68;;;19.90;99.90;;;;;;5091516;28;20028;-60
2023/07/17 07:33:24;;;;;;;12.45;7.18;;;20.20;99.90;;;;;;5091615;28;20384;-60
2023/07/17 07:35:50;;;;;;;9.93;6.38;;;20.40;99.90;;;;;;5091603;28;20016;-60
2023/07/17 07:38:15;;;;;;;14.57;6.85;;;20.50;99.90;;;;;;5090134;28;20381;-60
2023/07/17 07:40:41;;;;;;;11.48;6.45;;;20.60;99.90;;;;;;5091223;28;20491;-61
2023/07/17 07:43:06;;;;;;;13.35;6.88;;;20.60;99.90;;;;;;5092150;28;20502;-60
2023/07/17 07:45:32;;;;;;;10.63;6.47;;;20.70;99.90;;;;;;5091440;28;20486;-60
2023/07/17 07:47:58;;;;;;;11.98;6.32;;;20.80;99.90;;;;;;5091588;28;20410;-60
2023/07/17 07:50:24;;;;;;;10.52;6.40;;;20.90;99.90;;;;;;5091450;28;20099;-60
2023/07/17 07:52:50;;;;;;;11.73;6.43;;;20.80;99.90;;;;;;5091130;28;20600;-60
2023/07/17 07:55:15;;;;;;;13.00;6.47;;;20.90;99.90;;;;;;5091442;28;20572;-60
2023/07/17 07:57:41;;;;;;;11.85;6.53;;;20.90;99.90;;;;;;5090833;28;20109;-60
2023/07/17 08:00:07;;;;;;;13.23;7.20;;;20.90;99.90;;;;;;5091537;28;20043;-60
2023/07/17 08:02:33;;;;;;;12.90;6.97;;;20.90;99.90;;;;;;5091419;28;20040;-60
2023/07/17 08:04:59;;;;;;;15.50;6.90;;;20.80;99.90;;;;;;5091608;28;20107;-60
2023/07/17 08:07:24;;;;;;;15.82;7.15;;;20.60;99.90;;;;;;5091287;28;20032;-60
2023/07/17 08:09:50;;;;;;;15.50;7.32;;;20.50;99.90;;;;;;5091270;28;20073;-60
2023/07/17 08:12:16;;;;;;;15.60;6.95;;;20.50;99.90;;;;;;5091402;28;20040;-60
2023/07/17 08:14:41;;;;;;;14.93;6.90;;;20.40;99.90;;;;;;5095391;28;20081;-60
2023/07/17 08:17:07;;;;;;;15.30;7.38;;;20.40;99.90;;;;;;5095585;28;20040;-60
2023/07/17 08:19:33;;;;;;;15.60;7.35;;;20.40;99.90;;;;;;5094919;28;20032;-60
2023/07/17 08:21:58;;;;;;;19.45;7.30;;;20.40;99.90;;;;;;5095082;28;20028;-60
2023/07/17 08:24:24;;;;;;;21.20;6.60;;;20.30;99.90;;;;;;5094780;28;20266;-60
2023/07/17 08:26:50;;;;;;;13.80;6.63;;;20.40;99.90;;;;;;5095489;28;20035;-59
2023/07/17 08:29:15;;;;;;;19.17;6.72;;;20.40;99.90;;;;;;5095083;28;20028;-61
2023/07/17 08:31:41;;;;;;;21.92;7.25;;;20.40;99.90;;;;;;5094918;28;20100;-60
2023/07/17 08:34:07;;;;;;;21.98;7.07;;;20.40;99.90;;;;;;5095305;28;20028;-60
2023/07/17 08:36:33;;;;;;;24.13;7.50;;;20.50;99.90;;;;;;5094818;28;20024;-60
2023/07/17 08:38:59;;;;;;;24.33;7.03;;;20.50;99.90;;;;;;5094474;28;20038;-61
2023/07/17 08:41:25;;;;;;;25.90;7.53;;;20.60;99.90;;;;;;5094859;28;20024;-60
2023/07/17 08:43:51;;;;;;;13.55;6.50;;;20.70;99.90;;;;;;5094824;28;20775;-60
2023/07/17 08:46:18;;;;;;;11.60;6.38;;;20.70;99.90;;;;;;5095148;28;20428;-60
2023/07/17 08:48:44;;;;;;;13.30;6.22;;;20.90;99.90;;;;;;5094598;28;20040;-60
2023/07/17 08:51:11;;;;;;;12.15;6.32;;;21.10;99.90;;;;;;5094847;28;20045;-60
2023/07/17 08:53:42;;;;;;;12.02;6.05;;;21.30;99.90;;;;;;5094320;28;20077;-60
2023/07/17 08:56:11;;;;;;;11.88;6.45;;;21.50;99.90;;;;;;5094749;28;20545;-60
2023/07/17 08:58:37;;;;;;;11.55;6.00;;;21.60;99.90;;;;;;5094675;28;20028;-60
2023/07/17 09:01:04;;;;;;;11.63;6.38;;;21.70;99.90;;;;;;5094690;28;20020;-60
2023/07/17 09:03:32;;;;;;;13.98;6.70;;;21.70;99.90;;;;;;5094531;28;20028;-60
2023/07/17 09:05:58;;;;;;;11.13;6.35;;;21.70;99.90;;;;;;5094556;28;20020;-60
2023/07/17 09:08:24;;;;;;;11.90;5.90;;;21.70;99.90;;;;;;5093866;28;20085;-60
2023/07/17 09:11:08;;;;;;;11.82;6.22;;;21.90;99.90;;;;;;5094286;28;20023;-59
2023/07/17 09:13:40;;;;;;;11.55;6.07;;;22.00;99.90;;;;;;5094254;28;20039;-60
2023/07/17 09:16:19;;;;;;;12.40;5.90;;;22.00;99.90;;;;;;5094126;28;20388;-60
2023/07/17 09:18:46;;;;;;;9.73;6.82;;;22.00;99.90;;;;;;5093634;28;20040;-60
2023/07/17 09:21:19;;;;;;;11.73;6.63;;;22.00;99.90;;;;;;5093901;28;20162;-60
2023/07/17 09:23:54;;;;;;;11.68;6.40;;;21.90;99.90;;;;;;5093551;28;20124;-61
2023/07/17 09:26:24;;;;;;;9.73;6.55;;;21.80;99.90;;;;;;5094439;28;20020;-59
2023/07/17 09:28:58;;;;;;;15.50;7.60;;;21.70;99.90;;;;;;5093806;28;20020;-60
2023/07/17 09:31:31;;;;;;;10.30;6.90;;;21.60;99.90;;;;;;5093969;28;20032;-60
2023/07/17 09:33:59;;;;;;;14.77;7.35;;;21.60;99.90;;;;;;5093757;28;20016;-60
2023/07/17 09:36:24;;;;;;;15.25;7.60;;;21.50;99.90;;;;;;5093562;28;20020;-60
2023/07/17 09:38:52;;;;;;;11.13;6.90;;;21.50;99.90;;;;;;5093724;28;20403;-59
2023/07/17 09:41:23;;;;;;;12.15;7.15;;;21.50;99.90;;;;;;5093737;28;20051;-60
2023/07/17 09:44:04;;;;;;;12.10;6.65;;;21.60;99.90;;;;;;5093718;28;20066;-60
2023/07/17 09:46:31;;;;;;;14.63;6.85;;;21.60;99.90;;;;;;5093677;28;20031;-60
2023/07/17 09:48:58;;;;;;;11.25;6.28;;;21.70;99.90;;;;;;5093817;28;20479;-60
2023/07/17 09:51:24;;;;;;;11.45;6.22;;;21.70;99.90;;;;;;5093233;28;20032;-60
2023/07/17 09:53:51;;;;;;;12.05;7.03;;;21.70;99.90;;;;;;5093505;28;20107;-59
2023/07/17 09:56:20;;;;;;;12.80;6.80;;;21.80;99.90;;;;;;5093351;28;20448;-60
2023/07/17 09:58:53;;;;;;;15.10;6.82;;;21.90;99.90;;;;;;5093600;28;20043;-60
2023/07/17 10:01:22;;;;;;;13.18;7.10;;;21.90;99.90;;;;;;5093318;28;20032;-60
2023/07/17 10:03:49;;;;;;;11.00;6.65;;;22.00;99.90;;;;;;5093320;28;20379;-60
2023/07/17 10:06:17;;;;;;;11.27;6.35;;;22.20;99.90;;;;;;5092914;28;20047;-60
2023/07/17 10:08:46;;;;;;;12.05;6.72;;;22.50;99.90;;;;;;5093503;28;20035;-60
2023/07/17 10:11:16;;;;;;;13.38;7.35;;;22.70;99.90;;;;;;5093168;28;20028;-60
2023/07/17 10:13:47;;;;;;;14.00;7.07;;;22.70;99.90;;;;;;5093075;28;20383;-60
2023/07/17 10:16:19;;;;;;;14.40;6.65;;;22.90;99.90;;;;;;5092929;28;20047;-60
2023/07/17 10:18:55;;;;;;;11.40;7.00;;;23.00;99.90;;;;;;5092180;28;20040;-60
2023/07/17 10:21:22;;;;;;;11.07;6.35;;;23.10;99.90;;;;;;5093277;28;20028;-60
2023/07/17 10:23:50;;;;;;;15.68;6.68;;;23.10;99.90;;;;;;5092961;28;20418;-60
2023/07/17 10:26:19;;;;;;;14.50;7.70;;;23.20;99.90;;;;;;5092760;28;20055;-60
2023/07/17 10:28:49;;;;;;;14.65;7.28;;;23.20;99.90;;;;;;5092821;28;20074;-60
2023/07/17 10:31:23;;;;;;;10.77;6.63;;;23.10;99.90;;;;;;5092552;28;20059;-60
2023/07/17 10:33:55;;;;;;;12.50;7.70;;;23.20;99.90;;;;;;5092460;28;20478;-60
2023/07/17 10:36:44;;;;;;;13.95;7.07;;;23.10;99.90;;;;;;5091534;28;20028;-60
2023/07/17 10:39:17;;;;;;;11.23;7.13;;;23.00;99.90;;;;;;5092931;28;20052;-60
2023/07/17 10:41:43;;;;;;;11.70;7.30;;;23.00;99.90;;;;;;5092868;28;20517;-60
2023/07/17 10:44:18;;;;;;;13.48;7.13;;;22.90;99.90;;;;;;5092474;28;20036;-60
2023/07/17 10:46:43;;;;;;;13.75;6.57;;;22.80;99.90;;;;;;5092351;28;20046;-60
2023/07/17 10:49:11;;;;;;;11.75;6.50;;;22.80;99.90;;;;;;5092021;28;20487;-60
2023/07/17 10:51:45;;;;;;;13.25;6.63;;;22.70;99.90;;;;;;5092375;28;20031;-60
2023/07/17 10:54:15;;;;;;;12.77;6.95;;;22.70;99.90;;;;;;5092708;28;20024;-60
2023/07/17 10:56:43;;;;;;;12.00;6.20;;;22.70;99.90;;;;;;5092241;28;20030;-60
2023/07/17 10:59:09;;;;;;;9.80;6.47;;;22.70;99.90;;;;;;5092256;28;20028;-60
2023/07/17 11:01:35;;;;;;;10.15;6.68;;;22.80;99.90;;;;;;5092064;28;20441;-59
2023/07/17 11:04:00;;;;;;;12.63;6.80;;;22.90;99.90;;;;;;5092145;28;20020;-60
2023/07/17 11:06:27;;;;;;;9.73;6.22;;;22.90;99.90;;;;;;5092142;28;20032;-60
2023/07/17 11:08:54;;;;;;;10.25;6.40;;;22.90;99.90;;;;;;5091836;28;20024;-60
2023/07/17 11:11:20;;;;;;;10.80;6.45;;;23.00;99.90;;;;;;5092441;28;20024;-60
2023/07/17 11:13:49;;;;;;;10.50;6.45;;;23.10;99.90;;;;;;5091969;28;20077;-61
2023/07/17 11:16:16;;;;;;;11.00;6.78;;;23.00;99.90;;;;;;5091810;28;20102;-60
2023/07/17 11:18:53;;;;;;;12.18;6.25;;;23.10;99.90;;;;;;5091191;28;20042;-60
2023/07/17 11:21:23;;;;;;;10.85;6.32;;;23.20;99.90;;;;;;5092178;28;20024;-60
2023/07/17 11:23:49;;;;;;;9.88;6.25;;;23.50;99.90;;;;;;5091628;28;20083;-60
2023/07/17 11:26:21;;;;;;;10.10;6.22;;;23.70;99.90;;;;;;5091670;28;20051;-60
2023/07/17 11:28:49;;;;;;;10.48;6.45;;;23.80;99.90;;;;;;5091431;28;20024;-60
2023/07/17 11:31:30;;;;;;;9.57;6.13;;;23.90;99.90;;;;;;5090023;28;20451;-59
2023/07/17 11:34:00;;;;;;;9.98;6.18;;;24.10;99.90;;;;;;5092087;28;20050;-59
2023/07/17 11:36:28;;;;;;;12.02;6.80;;;24.10;99.90;;;;;;5091597;28;20083;-59
2023/07/17 11:39:08;;;;;;;11.75;6.68;;;24.00;99.90;;;;;;5091697;28;20111;-60
2023/07/17 11:41:41;;;;;;;12.38;6.78;;;24.20;99.90;;;;;;5091436;28;20032;-60
2023/07/17 11:44:07;;;;;;;10.40;6.38;;;24.30;99.90;;;;;;5091340;28;20038;-60
2023/07/17 11:46:33;;;;;;;9.70;6.25;;;24.30;99.90;;;;;;5090971;28;20107;-60
2023/07/17 11:49:00;;;;;;;11.07;6.40;;;24.60;99.90;;;;;;5091385;28;20095;-59
2023/07/17 11:51:26;;;;;;;8.65;5.80;;;24.90;99.90;;;;;;5091808;28;20035;-60
2023/07/17 11:53:53;;;;;;;10.80;6.20;;;24.90;99.90;;;;;;5091403;28;20012;-59
2023/07/17 11:56:20;;;;;;;8.23;5.55;;;24.80;99.90;;;;;;5091174;28;20032;-59
2023/07/17 11:58:51;;;;;;;9.88;6.22;;;24.70;99.90;;;;;;5091117;28;20028;-59
2023/07/17 12:01:16;;;;;;;12.75;6.55;;;24.60;99.90;;;;;;5090917;28;20027;-60
2023/07/17 12:03:42;;;;;;;8.82;6.00;;;24.70;99.90;;;;;;5091289;28;20020;-59
2023/07/17 12:06:08;;;;;;;11.48;6.70;;;24.70;99.90;;;;;;5091118;28;20024;-59
2023/07/17 12:08:33;;;;;;;8.55;5.97;;;24.70;99.90;;;;;;5091308;28;20161;-60
2023/07/17 12:10:59;;;;;;;8.18;6.35;;;24.60;99.90;;;;;;5091241;28;20465;-60
2023/07/17 12:13:25;;;;;;;8.82;5.68;;;24.40;99.90;;;;;;5091445;28;20027;-60
2023/07/17 12:15:50;;;;;;;10.30;6.22;;;24.40;99.90;;;;;;5090823;28;20475;-60
2023/07/17 12:18:16;;;;;;;10.05;6.40;;;24.60;99.90;;;;;;5090668;28;20073;-60
2023/07/17 12:20:42;;;;;;;12.00;6.95;;;24.80;99.90;;;;;;5091109;28;20087;-59
2023/07/17 12:23:08;;;;;;;9.45;6.57;;;25.00;99.90;;;;;;5090844;28;20040;-60
2023/07/17 12:25:35;;;;;;;10.90;6.32;;;25.10;99.90;;;;;;5091326;28;20043;-60
2023/07/17 12:28:01;;;;;;;10.45;6.53;;;25.30;99.90;;;;;;5090918;28;20024;-59
2023/07/17 12:30:29;;;;;;;9.13;5.88;;;25.40;99.90;;;;;;5090779;28;20028;-60
2023/07/17 12:32:55;;;;;;;8.48;5.78;;;25.40;99.90;;;;;;5091028;28;20419;-59
2023/07/17 12:35:21;;;;;;;10.02;5.90;;;25.40;99.90;;;;;;5089689;28;20116;-59